Ada, Michigan
Current Conditions -  °F | °C
As of 4:53 PM on Friday 24 Oct 2014 (Local Time) from KGRR Reporting Station
Broken Clouds Broken Clouds  
Wind Chill: 61°   Ceiling: 14000
Heat Index: 61°   Visibility: 9mi
Dew Point: 50°   Wind: 10mph
Humidity: 67%   Direction: 260°W
Pressure: 29.98"   Gusts: NA
Location:  42.95°N, 85.49°W
Report Text: KGRR 242053Z 26009KT 9SM FEW025 SCT050 BKN140 16/10 A2998 RMK AO2 SLP152 T01610100 56009
Loading
Personal Weather Stations






























Interactive Weather Map
Tropical Storm Tracking
New forecast layout! Learn more

10-Day Weather Forecast

Advertisements
Track Severe Weather on mobile